sensor_id;sensor_type;location;lat;lon;timestamp;temperature;humidity
44886;DHT22;36669;51.428;21.162;2024-02-28T00:01:53;11.20;99.90
44886;DHT22;36669;51.428;21.162;2024-02-28T00:04:20;11.20;99.90
44886;DHT22;36669;51.428;21.162;2024-02-28T00:06:46;11.20;99.90
44886;DHT22;36669;51.428;21.162;2024-02-28T00:09:14;11.20;99.90
44886;DHT22;36669;51.428;21.162;2024-02-28T00:11:46;11.10;99.90
44886;DHT22;36669;51.428;21.162;2024-02-28T00:14:13;11.00;99.90
44886;DHT22;36669;51.428;21.162;2024-02-28T00:16:45;11.00;99.90
44886;DHT22;36669;51.428;21.162;2024-02-28T00:19:12;11.00;99.90
44886;DHT22;36669;51.428;21.162;2024-02-28T00:21:40;11.00;99.90
44886;DHT22;36669;51.428;21.162;2024-02-28T00:24:09;11.00;99.90
44886;DHT22;36669;51.428;21.162;2024-02-28T00:26:39;11.10;99.90
44886;DHT22;36669;51.428;21.162;2024-02-28T00:29:09;11.10;99.90
44886;DHT22;36669;51.428;21.162;2024-02-28T00:31:36;11.10;99.90
44886;DHT22;36669;51.428;21.162;2024-02-28T00:34:02;11.10;99.90
44886;DHT22;36669;51.428;21.162;2024-02-28T00:36:28;11.10;99.90
44886;DHT22;36669;51.428;21.162;2024-02-28T00:38:54;11.20;99.90
44886;DHT22;36669;51.428;21.162;2024-02-28T00:41:21;11.20;99.90
44886;DHT22;36669;51.428;21.162;2024-02-28T00:43:47;11.20;99.90
44886;DHT22;36669;51.428;21.162;2024-02-28T00:46:14;11.20;99.90
44886;DHT22;36669;51.428;21.162;2024-02-28T00:48:39;11.20;99.90
44886;DHT22;36669;51.428;21.162;2024-02-28T00:51:06;11.20;99.90
44886;DHT22;36669;51.428;21.162;2024-02-28T00:53:36;11.20;99.90
44886;DHT22;36669;51.428;21.162;2024-02-28T00:56:05;11.20;99.90
44886;DHT22;36669;51.428;21.162;2024-02-28T00:58:32;11.20;99.90
44886;DHT22;36669;51.428;21.162;2024-02-28T01:00:59;11.20;99.90
44886;DHT22;36669;51.428;21.162;2024-02-28T01:03:26;11.30;99.90
44886;DHT22;36669;51.428;21.162;2024-02-28T01:05:53;11.20;99.90
44886;DHT22;36669;51.428;21.162;2024-02-28T01:08:20;11.20;99.90
44886;DHT22;36669;51.428;21.162;2024-02-28T01:10:47;11.20;99.90
44886;DHT22;36669;51.428;21.162;2024-02-28T01:13:13;11.20;99.90
44886;DHT22;36669;51.428;21.162;2024-02-28T01:15:41;11.20;99.90
44886;DHT22;36669;51.428;21.162;2024-02-28T01:18:09;11.10;99.90
44886;DHT22;36669;51.428;21.162;2024-02-28T01:20:36;11.20;99.90
44886;DHT22;36669;51.428;21.162;2024-02-28T01:23:02;11.10;99.90
44886;DHT22;36669;51.428;21.162;2024-02-28T01:25:27;11.20;99.90
44886;DHT22;36669;51.428;21.162;2024-02-28T01:27:53;11.20;99.90
44886;DHT22;36669;51.428;21.162;2024-02-28T01:30:21;11.20;99.90
44886;DHT22;36669;51.428;21.162;2024-02-28T01:32:49;11.20;99.90
44886;DHT22;36669;51.428;21.162;2024-02-28T01:35:16;11.20;99.90
44886;DHT22;36669;51.428;21.162;2024-02-28T01:37:42;11.20;99.90
44886;DHT22;36669;51.428;21.162;2024-02-28T01:40:09;11.20;99.90
44886;DHT22;36669;51.428;21.162;2024-02-28T01:42:37;11.20;99.90
44886;DHT22;36669;51.428;21.162;2024-02-28T01:45:03;11.20;99.90
44886;DHT22;36669;51.428;21.162;2024-02-28T01:47:31;11.20;99.90
44886;DHT22;36669;51.428;21.162;2024-02-28T01:49:56;11.20;99.90
44886;DHT22;36669;51.428;21.162;2024-02-28T01:52:23;11.20;99.90
44886;DHT22;36669;51.428;21.162;2024-02-28T01:54:51;11.20;99.90
44886;DHT22;36669;51.428;21.162;2024-02-28T01:57:19;11.20;99.90
44886;DHT22;36669;51.428;21.162;2024-02-28T01:59:46;11.20;99.90
44886;DHT22;36669;51.428;21.162;2024-02-28T02:02:14;11.10;99.90
44886;DHT22;36669;51.428;21.162;2024-02-28T02:04:41;11.00;99.90
44886;DHT22;36669;51.428;21.162;2024-02-28T02:07:08;11.00;99.90
44886;DHT22;36669;51.428;21.162;2024-02-28T02:09:35;11.10;99.90
44886;DHT22;36669;51.428;21.162;2024-02-28T02:12:05;11.00;99.90
44886;DHT22;36669;51.428;21.162;2024-02-28T02:14:32;10.90;99.90
44886;DHT22;36669;51.428;21.162;2024-02-28T02:16:59;11.00;99.90
44886;DHT22;36669;51.428;21.162;2024-02-28T02:19:24;10.90;99.90
44886;DHT22;36669;51.428;21.162;2024-02-28T02:21:59;10.90;99.90
44886;DHT22;36669;51.428;21.162;2024-02-28T02:24:28;10.90;99.90
44886;DHT22;36669;51.428;21.162;2024-02-28T02:27:00;10.90;99.90
44886;DHT22;36669;51.428;21.162;2024-02-28T02:29:27;10.90;99.90
44886;DHT22;36669;51.428;21.162;2024-02-28T02:31:55;10.90;99.90
44886;DHT22;36669;51.428;21.162;2024-02-28T02:34:23;10.90;99.90
44886;DHT22;36669;51.428;21.162;2024-02-28T02:36:50;10.90;99.90
44886;DHT22;36669;51.428;21.162;2024-02-28T02:39:16;11.00;99.90
44886;DHT22;36669;51.428;21.162;2024-02-28T02:41:43;11.00;99.90
44886;DHT22;36669;51.428;21.162;2024-02-28T02:44:10;11.00;99.90
44886;DHT22;36669;51.428;21.162;2024-02-28T02:46:37;11.00;99.90
44886;DHT22;36669;51.428;21.162;2024-02-28T02:49:04;10.90;99.90
44886;DHT22;36669;51.428;21.162;2024-02-28T02:51:32;10.80;99.90
44886;DHT22;36669;51.428;21.162;2024-02-28T02:54:00;10.80;99.90
44886;DHT22;36669;51.428;21.162;2024-02-28T02:56:27;10.70;99.90
44886;DHT22;36669;51.428;21.162;2024-02-28T02:58:55;10.50;99.90
44886;DHT22;36669;51.428;21.162;2024-02-28T03:01:22;10.50;99.90
44886;DHT22;36669;51.428;21.162;2024-02-28T03:03:49;10.40;99.90
44886;DHT22;36669;51.428;21.162;2024-02-28T03:06:16;10.40;99.90
44886;DHT22;36669;51.428;21.162;2024-02-28T03:08:44;10.30;99.90
44886;DHT22;36669;51.428;21.162;2024-02-28T03:11:11;10.20;99.90
44886;DHT22;36669;51.428;21.162;2024-02-28T03:13:39;10.20;99.90
44886;DHT22;36669;51.428;21.162;2024-02-28T03:16:06;10.20;99.90
44886;DHT22;36669;51.428;21.162;2024-02-28T03:18:34;10.20;99.90
44886;DHT22;36669;51.428;21.162;2024-02-28T03:21:01;10.20;99.90
44886;DHT22;36669;51.428;21.162;2024-02-28T03:23:28;10.10;99.90
44886;DHT22;36669;51.428;21.162;2024-02-28T03:25:54;10.10;99.90
44886;DHT22;36669;51.428;21.162;2024-02-28T03:28:19;10.10;99.90
44886;DHT22;36669;51.428;21.162;2024-02-28T03:30:47;10.10;99.90
44886;DHT22;36669;51.428;21.162;2024-02-28T03:33:14;10.10;99.90
44886;DHT22;36669;51.428;21.162;2024-02-28T03:35:40;10.20;99.90
44886;DHT22;36669;51.428;21.162;2024-02-28T03:38:08;10.20;99.90
44886;DHT22;36669;51.428;21.162;2024-02-28T03:40:36;10.20;99.90
44886;DHT22;36669;51.428;21.162;2024-02-28T03:43:04;10.30;99.90
44886;DHT22;36669;51.428;21.162;2024-02-28T03:45:38;10.30;99.90
44886;DHT22;36669;51.428;21.162;2024-02-28T03:48:08;10.30;99.90
44886;DHT22;36669;51.428;21.162;2024-02-28T03:50:33;10.40;99.90
44886;DHT22;36669;51.428;21.162;2024-02-28T03:53:00;10.30;99.90
44886;DHT22;36669;51.428;21.162;2024-02-28T03:55:26;10.40;99.90
44886;DHT22;36669;51.428;21.162;2024-02-28T03:57:54;10.40;99.90
44886;DHT22;36669;51.428;21.162;2024-02-28T04:00:22;10.40;99.90
44886;DHT22;36669;51.428;21.162;2024-02-28T04:02:49;10.40;99.90
44886;DHT22;36669;51.428;21.162;2024-02-28T04:05:16;10.40;99.90
44886;DHT22;36669;51.428;21.162;2024-02-28T04:07:42;10.40;99.90
44886;DHT22;36669;51.428;21.162;2024-02-28T04:10:11;10.40;99.90
44886;DHT22;36669;51.428;21.162;2024-02-28T04:12:39;10.40;99.90
44886;DHT22;36669;51.428;21.162;2024-02-28T04:15:07;10.50;99.90
44886;DHT22;36669;51.428;21.162;2024-02-28T04:17:36;10.50;99.90
44886;DHT22;36669;51.428;21.162;2024-02-28T04:20:03;10.50;99.90
44886;DHT22;36669;51.428;21.162;2024-02-28T04:22:32;10.50;99.90
44886;DHT22;36669;51.428;21.162;2024-02-28T04:24:59;10.50;99.90
44886;DHT22;36669;51.428;21.162;2024-02-28T04:27:27;10.40;99.90
44886;DHT22;36669;51.428;21.162;2024-02-28T04:29:55;10.50;99.90
44886;DHT22;36669;51.428;21.162;2024-02-28T04:32:24;10.40;99.90
44886;DHT22;36669;51.428;21.162;2024-02-28T04:34:51;10.50;99.90
44886;DHT22;36669;51.428;21.162;2024-02-28T04:37:18;10.40;99.90
44886;DHT22;36669;51.428;21.162;2024-02-28T04:39:45;10.40;99.90
44886;DHT22;36669;51.428;21.162;2024-02-28T04:42:15;10.30;99.90
44886;DHT22;36669;51.428;21.162;2024-02-28T04:44:43;10.40;99.90
44886;DHT22;36669;51.428;21.162;2024-02-28T04:47:10;10.30;99.90
44886;DHT22;36669;51.428;21.162;2024-02-28T04:49:40;10.20;99.90
44886;DHT22;36669;51.428;21.162;2024-02-28T04:52:06;10.20;99.90
44886;DHT22;36669;51.428;21.162;2024-02-28T04:54:33;10.10;99.90
44886;DHT22;36669;51.428;21.162;2024-02-28T04:57:00;10.20;99.90
44886;DHT22;36669;51.428;21.162;2024-02-28T04:59:26;10.10;99.90
44886;DHT22;36669;51.428;21.162;2024-02-28T05:01:53;10.10;99.90
44886;DHT22;36669;51.428;21.162;2024-02-28T05:04:20;10.10;99.90
44886;DHT22;36669;51.428;21.162;2024-02-28T05:06:47;10.00;99.90
44886;DHT22;36669;51.428;21.162;2024-02-28T05:09:15;9.90;99.90
44886;DHT22;36669;51.428;21.162;2024-02-28T05:11:43;9.90;99.90
44886;DHT22;36669;51.428;21.162;2024-02-28T05:14:10;9.80;99.90
44886;DHT22;36669;51.428;21.162;2024-02-28T05:16:36;9.80;99.90
44886;DHT22;36669;51.428;21.162;2024-02-28T05:19:02;9.80;99.90
44886;DHT22;36669;51.428;21.162;2024-02-28T05:21:30;9.80;99.90
44886;DHT22;36669;51.428;21.162;2024-02-28T05:23:56;9.90;99.90
44886;DHT22;36669;51.428;21.162;2024-02-28T05:26:23;9.90;99.90
44886;DHT22;36669;51.428;21.162;2024-02-28T05:28:48;9.90;99.90
44886;DHT22;36669;51.428;21.162;2024-02-28T05:31:34;9.90;99.90
44886;DHT22;36669;51.428;21.162;2024-02-28T05:34:04;10.00;99.90
44886;DHT22;36669;51.428;21.162;2024-02-28T05:36:31;10.00;99.90
44886;DHT22;36669;51.428;21.162;2024-02-28T05:38:58;10.00;99.90
44886;DHT22;36669;51.428;21.162;2024-02-28T05:41:26;10.10;99.90
44886;DHT22;36669;51.428;21.162;2024-02-28T05:43:53;10.10;99.90
44886;DHT22;36669;51.428;21.162;2024-02-28T05:46:20;10.10;99.90
44886;DHT22;36669;51.428;21.162;2024-02-28T05:48:49;10.10;99.90
44886;DHT22;36669;51.428;21.162;2024-02-28T05:51:16;10.20;99.90
44886;DHT22;36669;51.428;21.162;2024-02-28T05:53:43;10.10;99.90
44886;DHT22;36669;51.428;21.162;2024-02-28T05:56:11;10.10;99.90
44886;DHT22;36669;51.428;21.162;2024-02-28T05:58:44;10.10;99.90
44886;DHT22;36669;51.428;21.162;2024-02-28T06:01:12;10.10;99.90
44886;DHT22;36669;51.428;21.162;2024-02-28T06:03:50;10.10;99.90
44886;DHT22;36669;51.428;21.162;2024-02-28T06:06:21;10.10;99.90
44886;DHT22;36669;51.428;21.162;2024-02-28T06:08:48;10.10;99.90
44886;DHT22;36669;51.428;21.162;2024-02-28T06:11:14;10.10;99.90
44886;DHT22;36669;51.428;21.162;2024-02-28T06:13:44;10.10;99.90
44886;DHT22;36669;51.428;21.162;2024-02-28T06:16:14;10.20;99.90
44886;DHT22;36669;51.428;21.162;2024-02-28T06:18:44;10.10;99.90
44886;DHT22;36669;51.428;21.162;2024-02-28T06:21:10;10.10;99.90
44886;DHT22;36669;51.428;21.162;2024-02-28T06:23:36;10.20;99.90
44886;DHT22;36669;51.428;21.162;2024-02-28T06:26:02;10.20;99.90
44886;DHT22;36669;51.428;21.162;2024-02-28T06:28:30;10.20;99.90
44886;DHT22;36669;51.428;21.162;2024-02-28T06:30:57;10.30;99.90
44886;DHT22;36669;51.428;21.162;2024-02-28T06:33:25;10.40;99.90
44886;DHT22;36669;51.428;21.162;2024-02-28T06:35:52;10.40;99.90
44886;DHT22;36669;51.428;21.162;2024-02-28T06:38:19;10.40;99.90
44886;DHT22;36669;51.428;21.162;2024-02-28T06:40:46;10.50;99.90
44886;DHT22;36669;51.428;21.162;2024-02-28T06:43:14;10.50;99.90
44886;DHT22;36669;51.428;21.162;2024-02-28T06:45:42;10.50;99.90
44886;DHT22;36669;51.428;21.162;2024-02-28T06:48:08;10.60;99.90
44886;DHT22;36669;51.428;21.162;2024-02-28T06:50:36;10.60;99.90
44886;DHT22;36669;51.428;21.162;2024-02-28T06:53:05;10.60;99.90
44886;DHT22;36669;51.428;21.162;2024-02-28T06:55:32;10.60;99.90
44886;DHT22;36669;51.428;21.162;2024-02-28T06:58:00;10.70;99.90
44886;DHT22;36669;51.428;21.162;2024-02-28T07:00:26;10.70;99.90
44886;DHT22;36669;51.428;21.162;2024-02-28T07:02:55;10.70;99.90
44886;DHT22;36669;51.428;21.162;2024-02-28T07:05:23;10.70;99.90
44886;DHT22;36669;51.428;21.162;2024-02-28T07:07:50;10.80;99.90
44886;DHT22;36669;51.428;21.162;2024-02-28T07:10:18;10.80;99.90
44886;DHT22;36669;51.428;21.162;2024-02-28T07:12:45;10.90;99.90
44886;DHT22;36669;51.428;21.162;2024-02-28T07:15:12;10.90;99.90
44886;DHT22;36669;51.428;21.162;2024-02-28T07:17:40;11.00;99.90
44886;DHT22;36669;51.428;21.162;2024-02-28T07:20:08;11.00;99.90
44886;DHT22;36669;51.428;21.162;2024-02-28T07:22:33;11.10;99.90
44886;DHT22;36669;51.428;21.162;2024-02-28T07:25:00;11.10;99.90
44886;DHT22;36669;51.428;21.162;2024-02-28T07:27:29;11.10;99.90
44886;DHT22;36669;51.428;21.162;2024-02-28T07:29:55;11.20;99.90
44886;DHT22;36669;51.428;21.162;2024-02-28T07:32:22;11.20;99.90
44886;DHT22;36669;51.428;21.162;2024-02-28T07:34:51;11.20;99.90
44886;DHT22;36669;51.428;21.162;2024-02-28T07:37:27;11.20;99.90
44886;DHT22;36669;51.428;21.162;2024-02-28T07:39:53;11.30;99.90
44886;DHT22;36669;51.428;21.162;2024-02-28T07:42:20;11.30;99.90
44886;DHT22;36669;51.428;21.162;2024-02-28T07:44:46;11.40;99.90
44886;DHT22;36669;51.428;21.162;2024-02-28T07:47:13;11.40;99.90
44886;DHT22;36669;51.428;21.162;2024-02-28T07:49:41;11.40;99.90
44886;DHT22;36669;51.428;21.162;2024-02-28T07:52:09;11.50;99.90
44886;DHT22;36669;51.428;21.162;2024-02-28T07:54:37;11.50;99.90
44886;DHT22;36669;51.428;21.162;2024-02-28T07:57:05;11.40;99.90
44886;DHT22;36669;51.428;21.162;2024-02-28T07:59:38;11.50;99.90
44886;DHT22;36669;51.428;21.162;2024-02-28T08:02:07;11.50;99.90
44886;DHT22;36669;51.428;21.162;2024-02-28T08:04:34;11.40;99.90
44886;DHT22;36669;51.428;21.162;2024-02-28T08:07:00;11.30;99.90
44886;DHT22;36669;51.428;21.162;2024-02-28T08:09:28;11.30;99.90
44886;DHT22;36669;51.428;21.162;2024-02-28T08:11:54;11.30;99.90
44886;DHT22;36669;51.428;21.162;2024-02-28T08:14:21;11.30;99.90
44886;DHT22;36669;51.428;21.162;2024-02-28T08:16:49;11.40;99.90
44886;DHT22;36669;51.428;21.162;2024-02-28T08:19:16;11.40;99.90
44886;DHT22;36669;51.428;21.162;2024-02-28T08:21:45;11.40;99.90
44886;DHT22;36669;51.428;21.162;2024-02-28T08:24:16;11.60;99.90
44886;DHT22;36669;51.428;21.162;2024-02-28T08:26:41;11.60;99.90
44886;DHT22;36669;51.428;21.162;2024-02-28T08:29:09;11.70;99.90
44886;DHT22;36669;51.428;21.162;2024-02-28T08:31:46;11.70;99.90
44886;DHT22;36669;51.428;21.162;2024-02-28T08:34:15;11.80;99.90
44886;DHT22;36669;51.428;21.162;2024-02-28T08:36:42;11.90;99.90
44886;DHT22;36669;51.428;21.162;2024-02-28T08:39:07;12.00;99.90
44886;DHT22;36669;51.428;21.162;2024-02-28T08:41:35;12.10;99.90
44886;DHT22;36669;51.428;21.162;2024-02-28T08:44:02;12.20;99.90
44886;DHT22;36669;51.428;21.162;2024-02-28T08:46:29;12.30;99.90
44886;DHT22;36669;51.428;21.162;2024-02-28T08:48:55;12.40;99.90
44886;DHT22;36669;51.428;21.162;2024-02-28T08:51:23;12.50;99.90
44886;DHT22;36669;51.428;21.162;2024-02-28T08:53:50;12.60;99.90
44886;DHT22;36669;51.428;21.162;2024-02-28T08:56:18;12.80;99.90
44886;DHT22;36669;51.428;21.162;2024-02-28T08:58:45;12.90;99.90
44886;DHT22;36669;51.428;21.162;2024-02-28T09:01:15;13.10;99.90
44886;DHT22;36669;51.428;21.162;2024-02-28T09:03:42;13.20;99.90
44886;DHT22;36669;51.428;21.162;2024-02-28T09:06:09;13.30;99.90
44886;DHT22;36669;51.428;21.162;2024-02-28T09:08:37;13.40;99.90
44886;DHT22;36669;51.428;21.162;2024-02-28T09:11:04;13.60;99.90
44886;DHT22;36669;51.428;21.162;2024-02-28T09:13:32;13.70;99.90
44886;DHT22;36669;51.428;21.162;2024-02-28T09:15:58;13.80;99.90
44886;DHT22;36669;51.428;21.162;2024-02-28T09:18:24;14.00;99.90
44886;DHT22;36669;51.428;21.162;2024-02-28T09:20:51;14.00;99.90
44886;DHT22;36669;51.428;21.162;2024-02-28T09:23:18;14.30;99.90
44886;DHT22;36669;51.428;21.162;2024-02-28T09:25:45;14.40;99.90
44886;DHT22;36669;51.428;21.162;2024-02-28T09:28:12;14.60;99.90
44886;DHT22;36669;51.428;21.162;2024-02-28T09:30:41;14.80;99.90
44886;DHT22;36669;51.428;21.162;2024-02-28T09:33:06;14.90;99.90
44886;DHT22;36669;51.428;21.162;2024-02-28T09:35:33;15.00;99.90
44886;DHT22;36669;51.428;21.162;2024-02-28T09:38:00;15.10;99.90
44886;DHT22;36669;51.428;21.162;2024-02-28T09:40:27;15.20;99.90
44886;DHT22;36669;51.428;21.162;2024-02-28T09:43:01;15.30;99.90
44886;DHT22;36669;51.428;21.162;2024-02-28T09:45:30;15.40;99.90
44886;DHT22;36669;51.428;21.162;2024-02-28T09:47:59;15.50;99.90
44886;DHT22;36669;51.428;21.162;2024-02-28T09:50:29;15.80;99.90
44886;DHT22;36669;51.428;21.162;2024-02-28T09:52:57;16.00;99.90
44886;DHT22;36669;51.428;21.162;2024-02-28T09:55:22;16.00;99.90
44886;DHT22;36669;51.428;21.162;2024-02-28T09:57:49;15.80;99.90
44886;DHT22;36669;51.428;21.162;2024-02-28T10:00:22;15.70;99.90
44886;DHT22;36669;51.428;21.162;2024-02-28T10:02:49;15.80;99.90
44886;DHT22;36669;51.428;21.162;2024-02-28T10:05:16;15.90;99.90
44886;DHT22;36669;51.428;21.162;2024-02-28T10:07:45;16.20;99.90
44886;DHT22;36669;51.428;21.162;2024-02-28T10:10:12;16.10;99.90
44886;DHT22;36669;51.428;21.162;2024-02-28T10:12:41;16.00;99.90
44886;DHT22;36669;51.428;21.162;2024-02-28T10:15:12;16.00;99.90
44886;DHT22;36669;51.428;21.162;2024-02-28T10:17:39;16.10;99.90
44886;DHT22;36669;51.428;21.162;2024-02-28T10:20:06;16.10;99.90
44886;DHT22;36669;51.428;21.162;2024-02-28T10:22:38;16.10;99.90
44886;DHT22;36669;51.428;21.162;2024-02-28T10:25:04;16.00;99.90
44886;DHT22;36669;51.428;21.162;2024-02-28T10:27:35;16.10;99.90
44886;DHT22;36669;51.428;21.162;2024-02-28T10:30:04;15.90;99.90
44886;DHT22;36669;51.428;21.162;2024-02-28T10:32:32;15.70;99.90
44886;DHT22;36669;51.428;21.162;2024-02-28T10:35:01;15.70;99.90
44886;DHT22;36669;51.428;21.162;2024-02-28T10:37:29;15.80;99.90
44886;DHT22;36669;51.428;21.162;2024-02-28T10:40:09;15.80;99.90
44886;DHT22;36669;51.428;21.162;2024-02-28T10:42:42;15.80;99.90
44886;DHT22;36669;51.428;21.162;2024-02-28T10:45:12;15.70;99.90
44886;DHT22;36669;51.428;21.162;2024-02-28T10:47:47;15.80;99.90
44886;DHT22;36669;51.428;21.162;2024-02-28T10:50:21;15.80;99.90
44886;DHT22;36669;51.428;21.162;2024-02-28T10:52:48;15.80;99.90
44886;DHT22;36669;51.428;21.162;2024-02-28T10:55:21;15.70;99.90
44886;DHT22;36669;51.428;21.162;2024-02-28T10:58:03;15.70;99.90
44886;DHT22;36669;51.428;21.162;2024-02-28T11:00:31;15.70;99.90
44886;DHT22;36669;51.428;21.162;2024-02-28T11:03:01;15.80;99.90
44886;DHT22;36669;51.428;21.162;2024-02-28T11:05:37;16.00;99.90
44886;DHT22;36669;51.428;21.162;2024-02-28T11:08:23;16.00;99.90
44886;DHT22;36669;51.428;21.162;2024-02-28T11:11:02;16.00;99.90
44886;DHT22;36669;51.428;21.162;2024-02-28T11:13:33;15.70;99.90
44886;DHT22;36669;51.428;21.162;2024-02-28T11:16:08;15.60;99.90
44886;DHT22;36669;51.428;21.162;2024-02-28T11:18:36;15.70;99.90
44886;DHT22;36669;51.428;21.162;2024-02-28T11:21:03;15.70;99.90
44886;DHT22;36669;51.428;21.162;2024-02-28T11:23:38;15.70;99.90
44886;DHT22;36669;51.428;21.162;2024-02-28T11:26:04;15.80;99.90
44886;DHT22;36669;51.428;21.162;2024-02-28T11:28:29;15.90;99.90
44886;DHT22;36669;51.428;21.162;2024-02-28T11:30:58;15.70;99.90
44886;DHT22;36669;51.428;21.162;2024-02-28T11:33:24;15.80;99.90
44886;DHT22;36669;51.428;21.162;2024-02-28T11:35:58;16.10;99.90
44886;DHT22;36669;51.428;21.162;2024-02-28T11:38:29;16.20;99.90
44886;DHT22;36669;51.428;21.162;2024-02-28T11:40:56;16.30;99.90
44886;DHT22;36669;51.428;21.162;2024-02-28T11:43:23;16.30;99.90
44886;DHT22;36669;51.428;21.162;2024-02-28T11:45:50;16.30;99.90
44886;DHT22;36669;51.428;21.162;2024-02-28T11:48:19;16.30;99.90
44886;DHT22;36669;51.428;21.162;2024-02-28T11:50:45;16.50;99.90
44886;DHT22;36669;51.428;21.162;2024-02-28T11:53:12;16.70;99.90
44886;DHT22;36669;51.428;21.162;2024-02-28T11:55:38;16.70;99.90
44886;DHT22;36669;51.428;21.162;2024-02-28T11:58:10;16.90;99.90
44886;DHT22;36669;51.428;21.162;2024-02-28T12:00:57;16.90;99.90
44886;DHT22;36669;51.428;21.162;2024-02-28T12:03:28;17.10;99.90
44886;DHT22;36669;51.428;21.162;2024-02-28T12:05:58;17.10;99.90
44886;DHT22;36669;51.428;21.162;2024-02-28T12:08:27;16.90;99.90
44886;DHT22;36669;51.428;21.162;2024-02-28T12:10:54;16.90;99.90
44886;DHT22;36669;51.428;21.162;2024-02-28T12:13:23;16.90;99.90
44886;DHT22;36669;51.428;21.162;2024-02-28T12:15:51;16.80;99.90
44886;DHT22;36669;51.428;21.162;2024-02-28T12:18:17;16.80;99.90
44886;DHT22;36669;51.428;21.162;2024-02-28T12:20:43;16.90;99.90
44886;DHT22;36669;51.428;21.162;2024-02-28T12:23:10;16.70;99.90
44886;DHT22;36669;51.428;21.162;2024-02-28T12:25:37;16.80;99.90
44886;DHT22;36669;51.428;21.162;2024-02-28T12:28:06;16.60;99.90
44886;DHT22;36669;51.428;21.162;2024-02-28T12:30:41;16.60;99.90
44886;DHT22;36669;51.428;21.162;2024-02-28T12:33:21;16.50;99.90
44886;DHT22;36669;51.428;21.162;2024-02-28T12:35:49;16.50;99.90
44886;DHT22;36669;51.428;21.162;2024-02-28T12:38:15;16.60;99.90
44886;DHT22;36669;51.428;21.162;2024-02-28T12:40:41;16.50;99.90
44886;DHT22;36669;51.428;21.162;2024-02-28T12:43:09;16.50;99.90
44886;DHT22;36669;51.428;21.162;2024-02-28T12:45:34;16.40;99.90
44886;DHT22;36669;51.428;21.162;2024-02-28T12:48:00;16.30;99.90
44886;DHT22;36669;51.428;21.162;2024-02-28T12:50:27;16.20;99.90
44886;DHT22;36669;51.428;21.162;2024-02-28T12:52:54;16.10;99.90
44886;DHT22;36669;51.428;21.162;2024-02-28T12:55:21;16.00;99.90
44886;DHT22;36669;51.428;21.162;2024-02-28T12:57:48;15.90;99.90
44886;DHT22;36669;51.428;21.162;2024-02-28T13:00:15;15.80;99.90
44886;DHT22;36669;51.428;21.162;2024-02-28T13:02:42;15.70;99.90
44886;DHT22;36669;51.428;21.162;2024-02-28T13:05:10;15.60;99.90
44886;DHT22;36669;51.428;21.162;2024-02-28T13:07:37;15.40;99.90
44886;DHT22;36669;51.428;21.162;2024-02-28T13:10:03;15.00;99.90
44886;DHT22;36669;51.428;21.162;2024-02-28T13:12:32;14.60;99.90
44886;DHT22;36669;51.428;21.162;2024-02-28T13:15:00;14.30;99.90
44886;DHT22;36669;51.428;21.162;2024-02-28T13:17:27;14.10;99.90
44886;DHT22;36669;51.428;21.162;2024-02-28T13:19:57;13.90;99.90
44886;DHT22;36669;51.428;21.162;2024-02-28T13:22:22;13.80;99.90
44886;DHT22;36669;51.428;21.162;2024-02-28T13:24:48;13.70;99.90
44886;DHT22;36669;51.428;21.162;2024-02-28T13:27:17;13.50;99.90
44886;DHT22;36669;51.428;21.162;2024-02-28T13:29:44;13.30;99.90
44886;DHT22;36669;51.428;21.162;2024-02-28T13:32:14;13.10;99.90
44886;DHT22;36669;51.428;21.162;2024-02-28T13:34:40;13.00;99.90
44886;DHT22;36669;51.428;21.162;2024-02-28T13:37:11;13.00;99.90
44886;DHT22;36669;51.428;21.162;2024-02-28T13:39:36;12.90;99.90
44886;DHT22;36669;51.428;21.162;2024-02-28T13:42:02;12.80;99.90
44886;DHT22;36669;51.428;21.162;2024-02-28T13:44:32;12.90;99.90
44886;DHT22;36669;51.428;21.162;2024-02-28T13:46:58;12.80;99.90
44886;DHT22;36669;51.428;21.162;2024-02-28T13:49:25;12.80;99.90
44886;DHT22;36669;51.428;21.162;2024-02-28T13:51:51;12.70;99.90
44886;DHT22;36669;51.428;21.162;2024-02-28T13:54:17;12.60;99.90
44886;DHT22;36669;51.428;21.162;2024-02-28T13:56:42;12.60;99.90
44886;DHT22;36669;51.428;21.162;2024-02-28T13:59:11;12.60;99.90
44886;DHT22;36669;51.428;21.162;2024-02-28T14:01:39;12.60;99.90
44886;DHT22;36669;51.428;21.162;2024-02-28T14:04:06;12.50;99.90
44886;DHT22;36669;51.428;21.162;2024-02-28T14:06:34;12.40;99.90
44886;DHT22;36669;51.428;21.162;2024-02-28T14:09:00;12.30;99.90
44886;DHT22;36669;51.428;21.162;2024-02-28T14:11:26;12.20;99.90
44886;DHT22;36669;51.428;21.162;2024-02-28T14:13:52;12.30;99.90
44886;DHT22;36669;51.428;21.162;2024-02-28T14:16:17;12.20;99.90
44886;DHT22;36669;51.428;21.162;2024-02-28T14:18:47;12.30;99.90
44886;DHT22;36669;51.428;21.162;2024-02-28T14:21:14;12.20;99.90
44886;DHT22;36669;51.428;21.162;2024-02-28T14:23:42;12.20;99.90
44886;DHT22;36669;51.428;21.162;2024-02-28T14:26:10;12.20;99.90
44886;DHT22;36669;51.428;21.162;2024-02-28T14:28:38;12.20;99.90
44886;DHT22;36669;51.428;21.162;2024-02-28T14:31:05;12.20;99.90
44886;DHT22;36669;51.428;21.162;2024-02-28T14:33:36;12.20;99.90
44886;DHT22;36669;51.428;21.162;2024-02-28T14:36:03;12.20;99.90
44886;DHT22;36669;51.428;21.162;2024-02-28T14:38:31;12.20;99.90
44886;DHT22;36669;51.428;21.162;2024-02-28T14:40:59;12.30;99.90
44886;DHT22;36669;51.428;21.162;2024-02-28T14:43:26;12.30;99.90
44886;DHT22;36669;51.428;21.162;2024-02-28T14:45:56;12.30;99.90
44886;DHT22;36669;51.428;21.162;2024-02-28T14:48:24;12.40;99.90
44886;DHT22;36669;51.428;21.162;2024-02-28T14:50:51;12.40;99.90
44886;DHT22;36669;51.428;21.162;2024-02-28T14:53:19;12.40;99.90
44886;DHT22;36669;51.428;21.162;2024-02-28T14:55:48;12.40;99.90
44886;DHT22;36669;51.428;21.162;2024-02-28T14:58:14;12.40;99.90
44886;DHT22;36669;51.428;21.162;2024-02-28T15:00:42;12.40;99.90
44886;DHT22;36669;51.428;21.162;2024-02-28T15:03:12;12.40;99.90
44886;DHT22;36669;51.428;21.162;2024-02-28T15:05:38;12.40;99.90
44886;DHT22;36669;51.428;21.162;2024-02-28T15:08:07;12.40;99.90
44886;DHT22;36669;51.428;21.162;2024-02-28T15:10:36;12.40;99.90
44886;DHT22;36669;51.428;21.162;2024-02-28T15:13:03;12.40;99.90
44886;DHT22;36669;51.428;21.162;2024-02-28T15:15:32;12.40;99.90
44886;DHT22;36669;51.428;21.162;2024-02-28T15:17:59;12.40;99.90
44886;DHT22;36669;51.428;21.162;2024-02-28T15:20:30;12.40;99.90
44886;DHT22;36669;51.428;21.162;2024-02-28T15:22:57;12.40;99.90